createdAt,value
2018-12-03T00:01:32.898Z,13.50
2018-12-03T00:04:18.640Z,13.40
2018-12-03T00:06:47.474Z,13.10
2018-12-03T00:09:16.136Z,13.20
2018-12-03T00:11:44.639Z,13.30
2018-12-03T00:14:13.083Z,13.40
2018-12-03T00:16:41.526Z,13.40
2018-12-03T00:19:10.038Z,13.40
2018-12-03T00:21:38.454Z,13.30
2018-12-03T00:24:07.959Z,13.40
2018-12-03T00:26:36.420Z,13.30
2018-12-03T00:29:05.344Z,13.30
2018-12-03T00:31:33.808Z,13.30
2018-12-03T00:34:02.502Z,13.20
2018-12-03T00:36:31.038Z,13.30
2018-12-03T00:38:59.447Z,13.30
2018-12-03T00:41:27.878Z,13.30
2018-12-03T00:43:56.612Z,13.20
2018-12-03T00:46:25.451Z,13.30
2018-12-03T00:48:53.835Z,13.30
2018-12-03T00:51:22.247Z,13.10
2018-12-03T00:53:50.651Z,13.10
2018-12-03T00:56:19.033Z,13.10
2018-12-03T00:58:47.421Z,13.10
2018-12-03T01:01:16.428Z,13.10
2018-12-03T01:03:44.843Z,13.10
2018-12-03T01:06:13.252Z,12.80
2018-12-03T01:08:41.648Z,13.00
2018-12-03T01:11:10.056Z,13.10
2018-12-03T01:13:38.454Z,12.90
2018-12-03T01:16:06.928Z,13.00
2018-12-03T01:18:35.307Z,13.00
2018-12-03T01:21:03.742Z,12.90
2018-12-03T01:23:32.143Z,12.90
2018-12-03T01:26:00.533Z,13.00
2018-12-03T01:28:28.946Z,13.00
2018-12-03T01:30:57.331Z,13.20
2018-12-03T01:33:25.699Z,13.30
2018-12-03T01:35:54.095Z,13.40
2018-12-03T01:38:22.482Z,13.20
2018-12-03T01:40:50.919Z,13.20
2018-12-03T01:43:19.354Z,13.20
2018-12-03T01:45:47.741Z,13.30
2018-12-03T01:48:16.127Z,13.30
2018-12-03T01:50:44.579Z,13.50
2018-12-03T01:53:12.998Z,13.40
2018-12-03T01:55:42.255Z,13.40
2018-12-03T01:58:10.682Z,13.40
2018-12-03T02:00:39.091Z,13.50
2018-12-03T02:03:07.528Z,13.40
2018-12-03T02:05:35.919Z,13.40
2018-12-03T02:08:04.315Z,13.40
2018-12-03T02:10:32.721Z,13.40
2018-12-03T02:13:01.115Z,13.30
2018-12-03T02:15:29.547Z,13.20
2018-12-03T02:18:05.154Z,13.20
2018-12-03T02:20:33.570Z,13.20
2018-12-03T02:23:01.962Z,13.30
2018-12-03T02:25:30.363Z,13.30
2018-12-03T02:27:58.782Z,13.20
2018-12-03T02:30:27.892Z,13.30
2018-12-03T02:32:56.298Z,13.30
2018-12-03T02:35:24.699Z,13.10
2018-12-03T02:37:53.100Z,13.20
2018-12-03T02:40:21.499Z,13.10
2018-12-03T02:42:49.874Z,13.10
2018-12-03T02:45:18.319Z,13.10
2018-12-03T02:47:46.714Z,13.20
2018-12-03T02:50:15.474Z,13.30
2018-12-03T02:52:43.858Z,13.30
2018-12-03T02:55:13.065Z,13.10
2018-12-03T02:57:41.485Z,13.20
2018-12-03T03:00:12.441Z,13.10
2018-12-03T03:02:41.111Z,13.20
2018-12-03T03:05:11.734Z,13.20
2018-12-03T03:07:40.338Z,13.30
2018-12-03T03:10:11.050Z,13.30
2018-12-03T03:12:39.958Z,13.20
2018-12-03T03:15:09.800Z,13.20
2018-12-03T03:17:38.694Z,13.10
2018-12-03T03:20:08.766Z,13.20
2018-12-03T03:22:37.219Z,13.20
2018-12-03T03:25:06.511Z,13.20
2018-12-03T03:27:34.897Z,13.10
2018-12-03T03:30:03.638Z,13.20
2018-12-03T03:32:32.047Z,13.20
2018-12-03T03:35:00.419Z,13.20
2018-12-03T03:37:28.838Z,13.20
2018-12-03T03:39:57.264Z,13.20
2018-12-03T03:42:25.675Z,13.30
2018-12-03T03:44:54.070Z,13.40
2018-12-03T03:47:22.475Z,13.40
2018-12-03T03:49:50.854Z,13.40
2018-12-03T03:52:19.348Z,13.30
2018-12-03T03:54:47.756Z,13.40
2018-12-03T03:57:16.153Z,13.40
2018-12-03T03:59:44.653Z,13.40
2018-12-03T04:02:13.048Z,13.50
2018-12-03T04:04:41.460Z,13.40
2018-12-03T04:07:09.855Z,13.50
2018-12-03T04:09:38.243Z,13.50
2018-12-03T04:12:06.663Z,13.40
2018-12-03T04:14:35.031Z,13.40
2018-12-03T04:17:03.415Z,13.30
2018-12-03T04:19:31.782Z,13.40
2018-12-03T04:22:00.155Z,13.60
2018-12-03T04:24:28.532Z,13.70
2018-12-03T04:26:56.914Z,13.70
2018-12-03T04:29:25.282Z,13.80
2018-12-03T04:31:54.038Z,13.80
2018-12-03T04:34:22.448Z,13.50
2018-12-03T04:36:51.075Z,13.60
2018-12-03T04:39:19.463Z,13.70
2018-12-03T04:41:47.835Z,13.50
2018-12-03T04:44:16.243Z,13.60
2018-12-03T04:46:44.594Z,13.70
2018-12-03T04:49:13.005Z,13.60
2018-12-03T04:51:41.471Z,13.50
2018-12-03T04:54:09.880Z,13.60
2018-12-03T04:56:38.275Z,13.50
2018-12-03T04:59:06.722Z,13.40
2018-12-03T05:01:35.137Z,13.30
2018-12-03T05:04:03.547Z,13.20
2018-12-03T05:06:31.983Z,13.30
2018-12-03T05:09:00.379Z,13.30
2018-12-03T05:11:28.763Z,13.30
2018-12-03T05:13:57.123Z,13.30
2018-12-03T05:16:25.523Z,13.20
2018-12-03T05:18:54.096Z,13.20
2018-12-03T05:21:22.531Z,13.20
2018-12-03T05:23:50.903Z,13.10
2018-12-03T05:26:20.092Z,13.20
2018-12-03T05:28:48.511Z,13.20
2018-12-03T05:31:16.899Z,13.10
2018-12-03T05:33:45.272Z,13.20
2018-12-03T05:36:13.654Z,13.30
2018-12-03T05:38:42.034Z,13.40
2018-12-03T05:41:10.410Z,13.20
2018-12-03T05:43:38.822Z,13.10
2018-12-03T05:46:07.250Z,13.00
2018-12-03T05:48:35.739Z,13.00
2018-12-03T05:51:04.555Z,12.90
2018-12-03T05:53:32.954Z,12.90
2018-12-03T05:56:01.338Z,12.90
2018-12-03T05:58:29.757Z,12.80
2018-12-03T06:00:58.166Z,13.00
2018-12-03T06:03:26.627Z,12.80
2018-12-03T06:05:55.091Z,12.60
2018-12-03T06:08:23.482Z,12.60
2018-12-03T06:10:51.884Z,12.60
2018-12-03T06:13:20.310Z,12.50
2018-12-03T06:15:48.747Z,12.60
2018-12-03T06:18:17.159Z,12.80
2018-12-03T06:20:45.593Z,12.80
2018-12-03T06:23:14.008Z,12.90
2018-12-03T06:25:42.398Z,12.80
2018-12-03T06:28:10.784Z,12.70
2018-12-03T06:30:39.197Z,12.80
2018-12-03T06:33:07.616Z,12.80
2018-12-03T06:35:36.013Z,12.90
2018-12-03T06:38:04.534Z,12.90
2018-12-03T06:40:33.108Z,12.70
2018-12-03T06:43:01.482Z,12.70
2018-12-03T06:45:29.888Z,12.80
2018-12-03T06:48:02.674Z,12.70
2018-12-03T06:50:31.074Z,12.70
2018-12-03T06:52:59.443Z,12.70
2018-12-03T06:55:27.822Z,12.70
2018-12-03T06:57:56.246Z,12.90
2018-12-03T07:00:25.358Z,13.00
2018-12-03T07:02:53.798Z,13.00
2018-12-03T07:05:22.317Z,13.10
2018-12-03T07:07:52.138Z,13.10
2018-12-03T07:10:21.594Z,13.10
2018-12-03T07:12:51.691Z,13.20
2018-12-03T07:15:21.976Z,13.20
2018-12-03T07:17:52.144Z,13.10
2018-12-03T07:20:20.556Z,13.00
2018-12-03T07:22:49.011Z,13.00
2018-12-03T07:25:17.382Z,13.00
2018-12-03T07:27:45.758Z,12.80
2018-12-03T07:30:18.565Z,12.80
2018-12-03T07:32:47.801Z,12.70
2018-12-03T07:35:23.422Z,12.70
2018-12-03T07:37:53.336Z,12.80
2018-12-03T07:40:21.745Z,12.80
2018-12-03T07:42:50.193Z,12.70
2018-12-03T07:45:21.654Z,12.90
2018-12-03T07:47:54.736Z,12.90
2018-12-03T07:50:24.164Z,13.00
2018-12-03T07:52:52.775Z,12.90
2018-12-03T07:55:23.253Z,13.00
2018-12-03T07:58:01.208Z,13.00
2018-12-03T08:00:34.388Z,13.00
2018-12-03T08:03:02.785Z,13.00
2018-12-03T08:05:31.207Z,13.10
2018-12-03T08:07:59.619Z,13.00
2018-12-03T08:10:28.019Z,13.10
2018-12-03T08:12:56.464Z,13.10
2018-12-03T08:15:25.636Z,13.20
2018-12-03T08:18:00.784Z,13.30
2018-12-03T08:20:51.003Z,13.30
2018-12-03T08:23:33.231Z,13.30
2018-12-03T08:26:02.003Z,13.30
2018-12-03T08:28:30.411Z,13.30
2018-12-03T08:30:59.490Z,13.20
2018-12-03T08:33:27.905Z,13.10
2018-12-03T08:35:56.316Z,13.20
2018-12-03T08:38:24.694Z,13.30
2018-12-03T08:40:53.474Z,13.40
2018-12-03T08:43:21.851Z,13.50
2018-12-03T08:45:54.947Z,13.50
2018-12-03T08:48:23.323Z,13.50
2018-12-03T08:50:51.763Z,13.50
2018-12-03T08:53:20.280Z,13.40
2018-12-03T08:55:48.686Z,13.50
2018-12-03T08:58:17.086Z,13.60
2018-12-03T09:00:46.808Z,13.70
2018-12-03T09:03:20.018Z,14.20
2018-12-03T09:05:48.427Z,14.90
2018-12-03T09:08:16.853Z,15.60
2018-12-03T09:10:45.383Z,16.10
2018-12-03T09:13:22.748Z,16.30
2018-12-03T09:15:57.471Z,16.20
2018-12-03T09:18:31.759Z,15.90
2018-12-03T09:21:00.159Z,15.70
2018-12-03T09:23:28.699Z,15.60
2018-12-03T09:25:57.143Z,15.50
2018-12-03T09:28:25.531Z,15.50
2018-12-03T09:30:53.919Z,15.30
2018-12-03T09:33:22.294Z,14.90
2018-12-03T09:35:50.695Z,14.70
2018-12-03T09:38:19.086Z,14.60
2018-12-03T09:40:47.485Z,14.40
2018-12-03T09:43:15.910Z,14.30
2018-12-03T09:45:44.320Z,14.10
2018-12-03T09:48:12.691Z,14.10
2018-12-03T09:50:41.165Z,14.00
2018-12-03T09:53:09.585Z,14.00
2018-12-03T09:55:38.026Z,13.80
2018-12-03T09:58:10.228Z,14.00
2018-12-03T10:00:37.578Z,14.40
2018-12-03T10:03:11.043Z,14.60
2018-12-03T10:05:42.648Z,14.90
2018-12-03T10:08:11.058Z,14.90
2018-12-03T10:10:39.458Z,14.90
2018-12-03T10:13:09.181Z,15.20
2018-12-03T10:15:37.548Z,15.70
2018-12-03T10:18:06.132Z,16.30
2018-12-03T10:20:34.515Z,17.10
2018-12-03T10:23:02.898Z,17.50
2018-12-03T10:25:31.338Z,17.30
2018-12-03T10:28:09.603Z,16.60
2018-12-03T10:30:38.023Z,15.90
2018-12-03T10:33:07.297Z,15.50
2018-12-03T10:35:38.871Z,15.70
2018-12-03T10:38:09.512Z,16.40
2018-12-03T10:40:43.219Z,17.00
2018-12-03T10:43:12.361Z,17.40
2018-12-03T10:45:40.915Z,17.50
2018-12-03T10:48:09.406Z,17.40
2018-12-03T10:50:37.844Z,17.30
2018-12-03T10:53:06.379Z,17.60
2018-12-03T10:55:39.647Z,17.40
2018-12-03T10:58:08.138Z,17.60
2018-12-03T11:00:41.786Z,17.90
2018-12-03T11:03:13.638Z,18.20
2018-12-03T11:06:46.069Z,18.00
2018-12-03T11:09:14.471Z,18.00
2018-12-03T11:11:47.818Z,17.90
2018-12-03T11:14:16.909Z,17.60
2018-12-03T11:16:47.011Z,17.10
2018-12-03T11:19:15.460Z,16.70
2018-12-03T11:21:43.979Z,16.30
2018-12-03T11:24:15.738Z,16.30
2018-12-03T11:29:13.673Z,16.90
2018-12-03T11:31:42.092Z,16.90
2018-12-03T11:34:10.558Z,16.70
2018-12-03T11:36:41.520Z,16.20
2018-12-03T11:39:14.277Z,15.70
2018-12-03T11:41:42.827Z,15.40
2018-12-03T11:44:11.279Z,15.40
2018-12-03T11:46:39.753Z,15.30
2018-12-03T11:49:08.452Z,15.20
2018-12-03T11:51:36.892Z,15.20
2018-12-03T11:54:05.683Z,15.00
2018-12-03T11:56:34.095Z,14.90
2018-12-03T11:59:03.185Z,14.90
2018-12-03T12:01:30.970Z,14.80
2018-12-03T12:03:59.359Z,14.60
2018-12-03T12:06:27.791Z,14.80
2018-12-03T12:08:56.431Z,14.70
2018-12-03T12:11:24.895Z,14.90
2018-12-03T12:13:53.301Z,15.00
2018-12-03T12:16:21.719Z,15.40
2018-12-03T12:18:50.147Z,15.70
2018-12-03T12:21:18.533Z,15.90
2018-12-03T12:23:47.030Z,16.10
2018-12-03T12:26:15.411Z,16.10
2018-12-03T12:28:43.794Z,16.20
2018-12-03T12:31:12.440Z,16.40
2018-12-03T12:33:40.851Z,16.50
2018-12-03T12:36:09.269Z,16.60
2018-12-03T12:38:37.659Z,16.50
2018-12-03T12:41:06.234Z,16.50
2018-12-03T12:43:34.775Z,16.50
2018-12-03T12:46:08.145Z,16.20
2018-12-03T12:48:36.551Z,16.00
2018-12-03T12:51:05.015Z,16.10
2018-12-03T12:53:33.450Z,16.30
2018-12-03T12:56:02.423Z,16.30
2018-12-03T12:58:30.863Z,16.60
2018-12-03T13:00:59.281Z,16.70
2018-12-03T13:03:27.723Z,16.80
2018-12-03T13:05:56.707Z,16.90
2018-12-03T13:08:24.619Z,16.80
2018-12-03T13:10:53.131Z,16.60
2018-12-03T13:13:21.542Z,16.30
2018-12-03T13:15:49.940Z,16.00
2018-12-03T13:18:18.340Z,16.00
2018-12-03T13:20:47.310Z,15.80
2018-12-03T13:23:15.769Z,15.90
2018-12-03T13:25:44.196Z,15.70
2018-12-03T13:28:12.844Z,15.80
2018-12-03T13:30:41.302Z,15.70
2018-12-03T13:33:09.772Z,15.50
2018-12-03T13:35:38.239Z,15.50
2018-12-03T13:38:06.734Z,15.40
2018-12-03T13:40:35.161Z,15.40
2018-12-03T13:43:03.661Z,15.30
2018-12-03T13:45:32.186Z,15.20
2018-12-03T13:48:00.916Z,14.90
2018-12-03T13:50:30.219Z,14.80
2018-12-03T13:52:58.585Z,14.70
2018-12-03T13:55:26.995Z,14.60
2018-12-03T13:57:55.385Z,14.50
2018-12-03T14:00:25.228Z,14.40
2018-12-03T14:03:01.744Z,14.40
2018-12-03T14:05:32.775Z,14.40
2018-12-03T14:08:10.315Z,14.40
2018-12-03T14:11:22.947Z,14.40
2018-12-03T14:14:10.830Z,14.50
2018-12-03T14:16:51.427Z,14.60
2018-12-03T14:19:25.621Z,14.60
2018-12-03T14:22:11.834Z,14.50
2018-12-03T14:24:40.310Z,14.50
2018-12-03T14:27:08.741Z,14.40
2018-12-03T14:29:37.150Z,14.10
2018-12-03T14:32:06.242Z,13.90
2018-12-03T14:34:34.654Z,13.80
2018-12-03T14:37:03.236Z,13.70
2018-12-03T14:39:31.780Z,13.80
2018-12-03T14:42:00.258Z,13.90
2018-12-03T14:44:28.768Z,13.90
2018-12-03T14:46:57.472Z,13.90
2018-12-03T14:49:25.944Z,13.90
2018-12-03T14:51:54.442Z,13.80
2018-12-03T14:54:22.863Z,13.80
2018-12-03T14:56:51.381Z,13.80
2018-12-03T14:59:19.911Z,13.80
2018-12-03T15:01:48.391Z,13.60
2018-12-03T15:04:16.819Z,13.60
2018-12-03T15:06:45.259Z,13.60
2018-12-03T15:09:13.652Z,13.70
2018-12-03T15:11:42.066Z,13.40
2018-12-03T15:14:10.503Z,13.50
2018-12-03T15:16:39.531Z,13.40
2018-12-03T15:19:11.622Z,13.20
2018-12-03T15:21:36.603Z,13.30
2018-12-03T15:24:05.040Z,13.40
2018-12-03T15:26:38.328Z,13.30
2018-12-03T15:29:06.812Z,13.40
2018-12-03T15:31:35.279Z,13.20
2018-12-03T15:34:03.731Z,13.10
2018-12-03T15:36:32.236Z,13.10
2018-12-03T15:39:00.633Z,12.90
2018-12-03T15:41:29.084Z,12.90
2018-12-03T15:43:57.564Z,12.90
2018-12-03T15:46:26.015Z,13.00
2018-12-03T15:48:54.515Z,13.00
2018-12-03T15:51:23.054Z,12.80
2018-12-03T15:53:51.483Z,12.80
2018-12-03T15:56:19.910Z,12.90
2018-12-03T15:58:48.380Z,12.90
2018-12-03T16:01:16.796Z,12.90
2018-12-03T16:03:45.215Z,13.00
2018-12-03T16:06:13.682Z,13.00
2018-12-03T16:08:42.138Z,13.00
2018-12-03T16:11:11.156Z,13.00
2018-12-03T16:13:39.044Z,13.10
2018-12-03T16:16:07.480Z,13.00
2018-12-03T16:18:35.973Z,12.90
2018-12-03T16:21:04.418Z,12.80
2018-12-03T16:23:32.868Z,12.80
2018-12-03T16:26:02.805Z,12.80
2018-12-03T16:28:31.259Z,12.80
2018-12-03T16:30:59.683Z,12.70
2018-12-03T16:33:28.123Z,12.50
2018-12-03T16:35:56.534Z,12.50
2018-12-03T16:38:24.976Z,12.50
2018-12-03T16:40:53.477Z,12.50
2018-12-03T16:43:21.876Z,12.60
2018-12-03T16:46:19.618Z,12.60
2018-12-03T16:48:48.044Z,12.60
2018-12-03T16:51:16.449Z,12.60
2018-12-03T16:53:44.871Z,12.50
2018-12-03T16:56:13.266Z,12.60
2018-12-03T16:58:41.684Z,12.40
2018-12-03T17:01:10.100Z,12.50
2018-12-03T17:03:38.547Z,12.60
2018-12-03T17:06:06.991Z,12.70
2018-12-03T17:08:35.417Z,12.80
2018-12-03T17:11:04.046Z,12.80
2018-12-03T17:13:32.452Z,12.80
2018-12-03T17:16:00.990Z,12.80
2018-12-03T17:18:29.484Z,12.80
2018-12-03T17:21:05.584Z,12.80
2018-12-03T17:24:15.055Z,12.70
2018-12-03T17:26:43.516Z,12.70
2018-12-03T17:29:12.007Z,12.40
2018-12-03T17:31:40.574Z,12.40
2018-12-03T17:34:09.004Z,12.50
2018-12-03T17:36:37.559Z,12.60
2018-12-03T17:39:07.692Z,12.70
2018-12-03T17:41:36.114Z,12.70
2018-12-03T17:44:05.508Z,12.70
2018-12-03T17:46:33.920Z,12.70
2018-12-03T17:49:02.480Z,12.70
2018-12-03T17:51:31.020Z,12.80
2018-12-03T17:53:59.433Z,12.80
2018-12-03T17:56:27.984Z,12.70
2018-12-03T17:58:56.444Z,12.80
2018-12-03T18:01:24.854Z,12.80
2018-12-03T18:03:53.243Z,12.70
2018-12-03T18:06:21.678Z,12.70
2018-12-03T18:08:50.099Z,12.80
2018-12-03T18:11:18.520Z,12.80
2018-12-03T18:13:47.006Z,12.70
2018-12-03T18:16:15.483Z,12.80
2018-12-03T18:18:43.929Z,12.70
2018-12-03T18:21:12.359Z,12.70
2018-12-03T18:23:40.789Z,12.70
2018-12-03T18:26:09.403Z,12.80
2018-12-03T18:28:37.960Z,12.70
2018-12-03T18:31:06.374Z,12.60
2018-12-03T18:33:34.790Z,12.70
2018-12-03T18:36:03.284Z,12.70
2018-12-03T23:45:35.713Z,11.00
2018-12-03T23:48:04.236Z,10.90
2018-12-03T23:50:32.703Z,10.90
2018-12-03T23:53:01.091Z,10.80
2018-12-03T23:55:29.471Z,10.70
2018-12-03T23:57:57.875Z,10.60
